Terminal Aerodrome Forecast
Issued by NWS Green Bay, WI

Home | Current Version | Previous Version | Graphics & Text | Print | Product List | Glossary Off
Versions: 1 2 3 4 5 6 7 8 9 10 11 12 13 14 15 16 17 18 19 20 21 22 23 24 25 26 27 28 29 30 31 32 33 34 35

000
FTUS43 KGRB 021700
TAFGRB
TAF
KGRB 021733Z 0218/0318 25007KT P6SM SKC
     FM030000 20004KT P6SM BKN200
     FM030600 17007G14KT P6SM BKN050 BKN100
      TEMPO 0306/0310 3SM -SN SCT015 BKN030
     FM031300 15012G19KT 1/2SM SN OVC004
      TEMPO 0313/0317 1SM -SN OVC006=

USA.gov is the U.S. government's official web portal to all federal, state and local government web resources and services.